WetterOnline ( http://www.wetteronline.at )

Wetter aktuell Salzburg

Aktuelles Wetter: Salzburg Flughafen (450m)

6-stündlich | Neueste Meldungen
Ortszeit Temperatur Wetter
Mo, 24.09. 14:00 10.7° C wolkig
Mo, 24.09. 8:00 8.1° C leichter Regen
Mo, 24.09. 2:00 12.8° C bewölkt
So, 23.09. 20:00 18.8° C leicht bewölkt
So, 23.09. 14:00 18.5° C bewölkt
So, 23.09. 8:00 11.1° C leichter Regen
So, 23.09. 2:00 12.6° C leichte Schauer
Sa, 22.09. 20:00 13.6° C bewölkt
Ortszeit Temperatur Wetter
Mo, 24.09. 16:20 13° C bewölkt
Mo, 24.09. 16:00 12.0° C wolkig
Mo, 24.09. 15:50 12° C bewölkt
Mo, 24.09. 15:20 12° C bewölkt
Mo, 24.09. 15:00 11.6° C wolkig
Mo, 24.09. 14:50 12° C bewölkt
Mo, 24.09. 14:20 11° C bewölkt
Mo, 24.09. 14:00 10.7° C wolkig
Mo, 24.09. 13:20 11° C bewölkt
Mo, 24.09. 13:00 10.6° C wolkig
Ortszeit Relative Feuchte Sichtweite
Mo, 24.09. 14:00 63% 60 km
Mo, 24.09. 8:00 83% 70 km
Mo, 24.09. 2:00 79% 60 km
So, 23.09. 20:00 83% 65 km
So, 23.09. 14:00 74% 70 km
So, 23.09. 8:00 97% 5.0 km
So, 23.09. 2:00 86% 40 km
Sa, 22.09. 20:00 81% 55 km
Ortszeit Relative Feuchte Sichtweite
Mo, 24.09. 16:20 51% >10 km
Mo, 24.09. 16:00 57% 55 km
Mo, 24.09. 15:50 58% >10 km
Mo, 24.09. 15:20 54% >10 km
Mo, 24.09. 15:00 55% 65 km
Mo, 24.09. 14:50 54% >10 km
Mo, 24.09. 14:20 58% >10 km
Mo, 24.09. 14:00 63% 60 km
Mo, 24.09. 13:20 66% >10 km
Mo, 24.09. 13:00 64% 45 km
Ortszeit Niederschlagsmenge Niederschlagsart
Mo, 24.09. 14:00 2 l/m2 in 6 Std. -
Mo, 24.09. 8:00 15 l/m2 in 12 Std. -
Mo, 24.09. 2:00 9 l/m2 in 6 Std. -
So, 23.09. 20:00 2 l/m2 in 12 Std. -
So, 23.09. 14:00 2 l/m2 in 6 Std. -
So, 23.09. 8:00 4 l/m2 in 12 Std. -
So, 23.09. 2:00 0.4 l/m2 in 6 Std. -
Sa, 22.09. 20:00 keine Meldung -
Ortszeit Niederschlagsmenge Niederschlagsart
Mo, 24.09. 16:20 keine Meldung -
Mo, 24.09. 16:00 0.0 l/m2 in 1 Std. -
Mo, 24.09. 15:50 keine Meldung -
Mo, 24.09. 15:20 keine Meldung -
Mo, 24.09. 15:00 0.0 l/m2 in 1 Std. -
Mo, 24.09. 14:50 keine Meldung -
Mo, 24.09. 14:20 keine Meldung -
Mo, 24.09. 14:00 0.1 l/m2 in 1 Std. -
Mo, 24.09. 13:20 keine Meldung -
Mo, 24.09. 13:00 0.0 l/m2 in 1 Std. -
Ortszeit Stärke Spitze Richtung
km/h Bft. km/h Grad Sektor
Mo, 24.09. 14:00 18 3 - 280° W
Mo, 24.09. 8:00 18 3 47 320° NW
Mo, 24.09. 2:00 22 4 76 250° W
So, 23.09. 20:00 11 2 - - -
So, 23.09. 14:00 18 3 - 160° S
So, 23.09. 8:00 14 3 - 170° S
So, 23.09. 2:00 4 1 - - -
Sa, 22.09. 20:00 4 1 - - -
Ortszeit Stärke Spitze Richtung
km/h Bft. km/h Grad Sektor
Mo, 24.09. 16:20 15 3 - 270° W
Mo, 24.09. 16:00 14 3 - 280° W
Mo, 24.09. 15:50 15 3 - 280° W
Mo, 24.09. 15:20 15 3 33 280° W
Mo, 24.09. 15:00 14 3 - 270° W
Mo, 24.09. 14:50 15 3 - 270° W
Mo, 24.09. 14:20 13 3 - 270° W
Mo, 24.09. 14:00 18 3 - 280° W
Mo, 24.09. 13:20 17 3 - 270° W
Mo, 24.09. 13:00 18 3 - 270° W
Ortszeit Untergrenze Bedeckung Gattung
total tief tief mittel hoch
Mo, 24.09. 14:00 1050 m 6/8 5/8 Cu - -
Mo, 24.09. 8:00 360 m 7/8 6/8 Sc - -
Mo, 24.09. 2:00 600 m 8/8 5/8 - - -
So, 23.09. 20:00 1800 m 5/8 1/8 Cu Ac -
So, 23.09. 14:00 240 m 7/8 5/8 St - -
So, 23.09. 8:00 150 m 8/8 6/8 St - -
So, 23.09. 2:00 1380 m 8/8 8/8 - - -
Sa, 22.09. 20:00 3000 m 7/8 6/8 - Ac -
Ortszeit Bedeckungsgrad in Achtel und Wolkenuntergrenze
Mo, 24.09. 16:20 1-2(1350m) 5-7(2400m)
Mo, 24.09. 16:00 1(1200m) 3(1500m) 5(2400m)
Mo, 24.09. 15:50 1-2(1200m) 3-4(1500m) 7(2400m)
Mo, 24.09. 15:20 1-2(1200m) 5-7(1800m)
Mo, 24.09. 15:00 1(1200m) 5(2100m)
Mo, 24.09. 14:50 1-2(1200m) 5-7(2100m)
Mo, 24.09. 14:20 1-2(1050m) 5-7(1500m)
Mo, 24.09. 14:00 1(1050m) 5(1500m)
Mo, 24.09. 13:20 1-2(750m) 5-7(1500m)
Mo, 24.09. 13:00 1(750m) 5(1500m)
Ortszeit Luftdruck NN (hPa) Tendenz (hPa in 3 Std.)
Mo, 24.09. 14:00 1032 + 0,8
Mo, 24.09. 8:00 1028 + 4,0
Mo, 24.09. 2:00 1020 + 5,5
So, 23.09. 20:00 1006 - 3,0
So, 23.09. 14:00 1014 - 2,2
So, 23.09. 8:00 1020 - 1,7
So, 23.09. 2:00 1022 + 0,1
Sa, 22.09. 20:00 1021 - 0,8
Ortszeit Luftdruck NN (hPa) Tendenz (hPa in 3 Std.)
Mo, 24.09. 16:20 1031 keine Meldung
Mo, 24.09. 16:00 1032 + 0,1
Mo, 24.09. 15:50 1031 keine Meldung
Mo, 24.09. 15:20 1031 keine Meldung
Mo, 24.09. 15:00 1032 + 0,2
Mo, 24.09. 14:50 1031 keine Meldung
Mo, 24.09. 14:20 1031 keine Meldung
Mo, 24.09. 14:00 1032 + 0,8
Mo, 24.09. 13:20 1031 keine Meldung
Mo, 24.09. 13:00 1032 + 1,1
Ortszeit Schneehöhe (cm)
Mo, 24.09. 14:00 -
Mo, 24.09. 8:00 -
Mo, 24.09. 2:00 -
So, 23.09. 20:00 -
So, 23.09. 14:00 -
So, 23.09. 8:00 -
So, 23.09. 2:00 -
Sa, 22.09. 20:00 -
Ortszeit Schneehöhe (cm)
Mo, 24.09. 16:20 -
Mo, 24.09. 16:00 -
Mo, 24.09. 15:50 -
Mo, 24.09. 15:20 -
Mo, 24.09. 15:00 -
Mo, 24.09. 14:50 -
Mo, 24.09. 14:20 -
Mo, 24.09. 14:00 -
Mo, 24.09. 13:20 -
Mo, 24.09. 13:00 -
Link zu dieser Seite / Seite empfehlen

Das Wetter in ...